Tiempo atmosférico en la estación meteorológica de Alicante/Alacant Aeropuerto, Alacant/Alicante (43 m.)

Fecha
DESCASC
Temp. máxima en grados centígrados (hora)
DESCASC
Temp. mínima en grados centígrados (hora)
DESCASC
Temp. media en grados centígrados
DESCASC
Racha de viento máxima en m/sg (hora)
DESCASC
Velocidad máxima media en intervalos de 10 minutos(hora)
DESCASC
Precipitaciones diarias en mm
DESCASC
Precipitaciones de 00:00 a 06:00 en mm
DESCASC
Precipitaciones de 06:00 a 12:00 en mm
DESCASC
Precipitaciones de 12:00 a 18:00 en mm
DESCASC
Precipitaciones de 18:00 a 24:00 en mm
DESCASC

Gráficas

Temp. máximas Temp. mínimas Temp. medias Precipitaciones Rachas de viento máximas Velocidades máximas media en intervalos de 10 minutos

Datos horarios

Fecha y hora oficial Temperatura (ºC) Velocidad del viento (km/h) Dirección del viento Racha (km/h) Dirección de racha Precipitación (mm) Presión (hPa) Tendencia (hPa) Humedad (%)
2017-11-24 23:00:00 13.4 0 Calma 4 Sur 0 1016.2 -0.3 85
2017-11-24 22:00:00 14 2 Noroeste 15 Norte 0 1016.6 0.3 87
2017-11-24 21:00:00 15.1 5 Norte 9 Norte 0 1016.6 0.6 84
2017-11-24 20:00:00 15.9 6 Norte 9 Norte 0 1016.5 0.8 81
2017-11-24 19:00:00 16.6 0 Calma 8 Norte 0 1016.3 0.9 84
2017-11-24 18:00:00 18 2 Noroeste 13 Sur 0 1016 0.4 79
2017-11-24 17:00:00 20.2 6 Sudoeste 21 Sur 0 1015.7 -0.4 64
2017-11-24 16:00:00 22.3 12 Sur 21 Sur 0 1015.4 -1.1 56
2017-11-24 15:00:00 22.1 12 Sur 18 Sur 0 1015.6 -1.8 47
2017-11-24 14:00:00 23.6 11 Sur 21 Sudoeste 0 1016.1 -1.6 27
2017-11-24 13:00:00 21.9 13 Sudoeste 22 Sur 0 1016.5 -1.2 26
2017-11-24 12:00:00 20.7 12 Sudoeste 18 Sudoeste 0 1017.4 0 27
2017-11-24 11:00:00 19.3 12 Sudoeste 15 Sudoeste 0 1017.7 1 32
2017-11-24 10:00:00 15.8 4 Sudoeste 15 Sudoeste 0 1017.7 1.3 39
2017-11-24 09:00:00 11.5 11 Sudoeste 15 Sudoeste 0 1017.4 0.9 50
2017-11-24 08:00:00 10 15 Sudoeste -- -- 0 1016.7 0.3 54
2017-11-24 07:00:00 10.5 12 Sudoeste 17 Sudoeste 0 1016.4 -0.1 52
2017-11-24 06:00:00 10.2 13 Sudoeste 13 Sudoeste 0 1016.5 -- 54
2017-11-24 05:00:00 10.9 9 Sudoeste 13 Sudoeste 0 1016.4 -0.1 50
2017-11-24 04:00:00 10.6 10 Sudoeste 13 Oeste 0 1016.5 -0.3 52
2017-11-24 03:00:00 11.6 7 Sudoeste 15 Sudoeste 0 -- -- 47
2017-11-24 02:00:00 12.5 9 Oeste 15 Oeste 0 1016.5 -0.4 44
2017-11-24 01:00:00 14.2 9 Sudoeste 11 Sudoeste 0 1016.8 -0.2 37
2017-11-24 00:00:00 14.1 10 Sudoeste 11 Sudoeste 0 1017 0.3 39
2017-11-23 23:00:00 14.4 8 Oeste 11 Oeste 0 1016.9 0.5 41
2017-11-23 22:00:00 14.8 5 Noroeste 11 Oeste 0 1017 1.2 51
2017-11-23 21:00:00 13.3 5 Noroeste 9 Norte 0 1016.7 1.5 72
2017-11-23 20:00:00 15 0 Calma 8 Este 0 1016.4 1.7 76
2017-11-23 19:00:00 16.4 5 Oeste 13 Oeste 0 1015.8 1.4 76
2017-11-23 18:00:00 17.7 8 Sudoeste 17 Sudoeste 0 1015.2 0.8 73
2017-11-23 17:00:00 20.7 9 Sur 18 Sudoeste 0 1014.7 0 57
2017-11-23 16:00:00 22.4 11 Sur 21 Sur 0 1014.4 -0.7 37
2017-11-23 15:00:00 23.4 12 Sur 26 Sudoeste 0 1014.4 -1.3 25
2017-11-23 14:00:00 23.1 14 Sur 22 Sur 0 1014.7 -1.3 22
2017-11-23 13:00:00 21.6 14 Sur 21 Sur 0 1015.1 -0.5 30
2017-11-23 12:00:00 20.8 13 Sudoeste 18 Sudoeste 0 1015.7 0.7 27
2017-11-23 11:00:00 16.4 11 Sudoeste 21 Sudoeste 0 1016 1.9 40
2017-11-23 10:00:00 12.5 11 Sudoeste 17 Sudoeste 0 1015.6 2.2 56
2017-11-23 09:00:00 9.6 12 Sudoeste 15 Sudoeste 0 1015 1.9 60
2017-11-23 08:00:00 8.9 4 Sudoeste 22 Oeste 0 1014.1 1.7 56
2017-11-23 07:00:00 8.3 16 Sudoeste 18 Sudoeste 0 1013.4 0.8 61
2017-11-23 06:00:00 10.8 8 Sudoeste 17 Oeste 0 1013.1 0.6 46
2017-11-23 05:00:00 8.8 10 Sudoeste 21 Oeste 0 1012.4 0 54
2017-11-23 04:00:00 9.7 15 Oeste 22 Oeste 0 1012.6 0.2 53
2017-11-23 03:00:00 9.3 13 Sudoeste 18 Sudoeste 0 1012.5 0 60
2017-11-23 02:00:00 8.4 16 Oeste 18 Oeste 0 1012.4 0.1 70
2017-11-23 01:00:00 8.9 10 Oeste 13 Oeste 0 1012.4 0.1 76
2017-11-23 00:00:00 9.4 8 Sudoeste 17 Oeste 0 1012.5 0.4 81
2017-11-22 23:00:00 11.2 13 Oeste 17 Oeste 0 1012.3 0.1 81
2017-11-22 22:00:00 11.3 6 Oeste 13 Oeste 0 1012.3 0.4 94
2017-11-22 21:00:00 12.4 8 Oeste 13 Noroeste 0 1012.1 0.4 92
2017-11-22 20:00:00 14 11 Oeste 15 Oeste 0 1012.2 0.5 87
2017-11-22 19:00:00 13.9 9 Oeste 13 Oeste 0 1011.9 0.4 86
2017-11-22 18:00:00 15.6 6 Sudoeste 17 Sur 0 1011.7 0.2 80
2017-11-22 17:00:00 18.2 10 Sur 18 Sur 0 1011.7 -0.4 67
2017-11-22 16:00:00 20.3 10 Sur 18 Sudoeste 0 1011.5 -1.3 43
2017-11-22 15:00:00 20.7 9 Sudoeste 18 Sur 0 1011.5 -2.3 35
2017-11-22 14:00:00 20.3 8 Sur 17 Sudoeste 0 1012.1 -2.3 39
2017-11-22 13:00:00 19.5 9 Sur 17 Sur 0 1012.8 -1.5 43
2017-11-22 12:00:00 19 4 Sudoeste 11 Sudoeste 0 1013.8 -0.3 40
2017-11-22 11:00:00 16.4 6 Oeste 13 Sudoeste -- 1014.4 0.4 47
2017-11-22 10:00:00 15.8 6 Sur 9 Sur 0 1014.3 0.4 56
2017-11-22 09:00:00 11.1 0 Calma 9 Oeste 0 1014.1 0.2 64
2017-11-22 08:00:00 8.3 7 Oeste -- -- 0 1014 -0.2 67
2017-11-22 07:00:00 8.3 6 Sudoeste 9 Oeste 0 1013.9 -0.7 69
2017-11-22 06:00:00 8.7 -- -- -- -- 0 1013.9 -1.2 71
2017-11-22 05:00:00 9.3 2 Oeste 8 Noroeste 0 1014.2 -1.1 76
2017-11-22 04:00:00 9.6 8 Noroeste 11 Oeste 0 1014.6 -1.2 77
2017-11-22 03:00:00 10.3 9 Oeste 11 Noroeste 0 1015.1 -0.9 76
2017-11-22 02:00:00 10.3 9 Oeste 11 Oeste 0 1015.3 -0.9 84
2017-11-22 01:00:00 10.8 6 Oeste 9 Noroeste 0 1015.8 -0.6 86
2017-11-22 00:00:00 11.8 3 Noroeste 13 Norte 0 1016 -0.5 88
2017-11-21 23:00:00 13 9 Norte 11 Norte 0 1016.2 -0.4 87
2017-11-21 22:00:00 12.5 10 Norte 15 Norte 0 1016.4 -0.1 88
2017-11-21 21:00:00 13.8 11 Norte 17 Norte 0 1016.5 0.2 84
2017-11-21 20:00:00 14.2 11 Norte 15 Norte 0 1016.6 0.3 81
2017-11-21 19:00:00 15.6 5 Nordeste 11 Nordeste 0 1016.5 0.2 76
2017-11-21 18:00:00 16.7 4 Este 8 Sudeste 0 1016.3 -0.2 74
2017-11-21 17:00:00 18.9 4 Sur 17 Sur 0 1016.3 -0.7 69
2017-11-21 16:00:00 20.1 10 Sur 18 Sur 0 1016.3 -1.4 53
2017-11-21 15:00:00 20.6 5 Sur 18 Sudeste 0 1016.5 -- 43
2017-11-21 14:00:00 21.7 8 Sur 17 Sur 0 1017 -1.8 29
2017-11-21 13:00:00 20.3 9 Sur 17 Sur 0 1017.7 -0.9 34
2017-11-21 12:00:00 18.3 9 Sur 18 Sur 0 -- -- 45
2017-11-21 11:00:00 16.6 5 Sudoeste 13 Sudoeste 0 1018.8 0.3 50
2017-11-21 10:00:00 14 7 Sudoeste 11 Sudoeste 0 1018.6 0.3 48
2017-11-21 09:00:00 9.3 0 Calma 11 Oeste 0 1018.6 0.4 65
2017-11-21 08:00:00 8.8 12 Oeste -- -- 0 1018.5 0.3 61
2017-11-21 07:00:00 7.6 11 Oeste 17 Oeste 0 1018.3 -0.2 69
2017-11-21 06:00:00 8.4 15 Oeste 17 Oeste 0 1018.2 -0.6 68
2017-11-21 05:00:00 9.1 9 Oeste 13 Oeste 0 1018.2 -0.5 66
2017-11-21 04:00:00 9.3 11 Oeste 15 Oeste 0 1018.5 -0.5 73
2017-11-21 03:00:00 9 8 Sudoeste 13 Oeste 0 1018.8 -0.4 82
2017-11-21 02:00:00 10.2 9 Oeste 15 Oeste 0 1018.7 -0.7 88
2017-11-21 01:00:00 11.1 7 Oeste 11 Noroeste 0 1019 -0.6 89
2017-11-21 00:00:00 11.8 7 Noroeste 13 Noroeste 0 1019.2 -0.4 93
2017-11-20 23:00:00 12.9 10 Noroeste 15 Noroeste 0 1019.4 0 94
2017-11-20 22:00:00 13 8 Noroeste 11 Noroeste 0 1019.6 0.5 95
2017-11-20 21:00:00 13.3 0 Calma 8 Noroeste 0 1019.6 1 93
2017-11-20 20:00:00 15.6 0 Calma -- -- 0 1019.4 1 87
2017-11-20 19:00:00 15.2 0 Calma -- -- 0 1019.1 0.9 88
2017-11-20 18:00:00 15.9 0 Calma 13 Sur 0 1018.6 0.4 83
2017-11-20 17:00:00 18.1 7 Sur 15 Sur 0 1018.4 -0.7 75
2017-11-20 16:00:00 19.2 8 Sur 18 Sur 0 1018.2 -1.7 59
2017-11-20 15:00:00 20.8 9 Sudoeste 18 Sur 0 1018.2 -2.4 46
2017-11-20 14:00:00 20.5 10 Sur 17 Sudoeste 0 1019.1 -1.7 45
2017-11-20 13:00:00 19.7 9 Sudoeste 17 Sur 0 1019.9 -0.6 49
2017-11-20 12:00:00 18.5 7 Sudoeste 15 Sudoeste 0 1020.6 0.3 56
2017-11-20 11:00:00 17.4 7 Sudoeste 11 Sur 0 1020.8 0.7 61
2017-11-20 10:00:00 15.8 2 Sudoeste 9 Oeste 0 1020.5 0.8 68
2017-11-20 09:00:00 12 7 Oeste 9 Oeste 0 1020.3 1.1 81
2017-11-20 08:00:00 9.2 4 Noroeste 8 Noroeste 0 1020.1 1.2 89
2017-11-20 07:00:00 8.4 3 Oeste 11 Oeste 0 1019.7 0.7 91
2017-11-20 06:00:00 8.8 4 Oeste 11 Oeste 0 1019.2 0.3 90
2017-11-20 05:00:00 8.6 7 Oeste 9 Oeste 0 1018.9 0 85
2017-11-20 04:00:00 9.3 4 Oeste 8 Oeste 0 1019 -0.1 80
2017-11-20 03:00:00 8.6 6 Oeste 9 Oeste 0 1018.9 -0.4 91
2017-11-20 02:00:00 9.3 7 Oeste 11 Oeste 0 1018.9 -0.3 89
2017-11-20 01:00:00 11 11 Oeste 13 Oeste 0 1019.1 -0.1 86
2017-11-20 00:00:00 11.1 9 Oeste 13 Noroeste 0 1019.3 0.6 89
2017-11-19 23:00:00 11.8 9 Noroeste 13 Oeste 0 1019.2 0.6 92
2017-11-19 22:00:00 12.8 10 Noroeste 13 Noroeste 0 1019.2 1.3 91
2017-11-19 21:00:00 13.4 9 Noroeste 13 Noroeste 0 1018.7 1.3 90
2017-11-19 20:00:00 14.6 6 Oeste 11 Oeste 0 1018.6 1.8 85
2017-11-19 19:00:00 14.2 5 Oeste 9 Sur 0 1017.9 1.5 84
2017-11-19 18:00:00 16 5 Sur 17 Sur 0 1017.4 0.7 78
2017-11-19 17:00:00 18.4 9 Sur 17 Sur 0 1016.8 -0.6 65
2017-11-19 16:00:00 20.1 11 Sur 18 Sudoeste 0 1016.4 -1.7 47
2017-11-19 15:00:00 20.4 10 Sudoeste 18 Oeste 0 1016.7 -2.2 49
2017-11-19 14:00:00 19.9 3 Sudoeste 17 Sudoeste 0 1017.4 -1.8 51
2017-11-19 13:00:00 19.3 6 Sur 17 Sudoeste 0 1018.1 -1.1 57
2017-11-19 12:00:00 18.5 4 Sudoeste 15 Sur 0 1018.9 0.1 63
2017-11-19 11:00:00 17.7 3 Sudoeste 11 Sudoeste 0 1019.2 1.1 65
2017-11-19 10:00:00 15.5 0 Calma 15 Noroeste 0 1019.2 1.6 66
2017-11-19 09:00:00 11.4 11 Oeste 15 Noroeste 0 1018.8 1.5 77
2017-11-19 08:00:00 9.4 11 Noroeste 13 Noroeste 0 1018.1 0.9 84
2017-11-19 07:00:00 9.3 0 Calma 13 Noroeste 0 1017.6 0.4 85
2017-11-19 06:00:00 9.5 10 Oeste 13 Noroeste 0 1017.3 -0.2 84
2017-11-19 05:00:00 10.2 9 Oeste 13 Noroeste 0 1017.2 -0.2 82
2017-11-19 04:00:00 9.8 10 Oeste 13 Oeste 0 1017.2 -0.4 87
2017-11-19 03:00:00 10.2 8 Noroeste 11 Noroeste 0 1017.5 -0.2 89
2017-11-19 02:00:00 10.5 0 Calma 11 Noroeste 0 1017.4 -0.2 88
2017-11-19 01:00:00 10.9 0 Calma 9 Noroeste 0 1017.6 0.2 92
2017-11-19 00:00:00 11.3 9 Noroeste 11 Noroeste 0 1017.7 0.5 92
2017-11-18 23:00:00 11.6 8 Noroeste 11 Noroeste 0 1017.6 0.8 91
2017-11-18 22:00:00 11.7 8 Noroeste 9 Noroeste 0 1017.4 1 91
2017-11-18 21:00:00 11.8 7 Noroeste 9 Norte 0 1017.2 1.2 90
2017-11-18 20:00:00 14 0 Calma 9 Norte 0 1016.8 1.1 81
2017-11-18 19:00:00 15.4 2 Noroeste 5 Norte 0 1016.4 1 77
2017-11-18 18:00:00 15.7 0 Calma 13 Sur 0 1016 0.7 75
2017-11-18 17:00:00 18 9 Sur 17 Sur 0 1015.7 0.1 67
2017-11-18 16:00:00 18.8 10 Sur 21 Sur 0 1015.4 -0.6 63
2017-11-18 15:00:00 19.7 10 Sur 21 Sur 0 1015.3 -1.3 55
2017-11-18 14:00:00 20.1 9 Sur 18 Sur 0 1015.6 -1.3 42
2017-11-18 13:00:00 19.2 12 Sudoeste 18 Sudoeste 0 1016 -0.9 46
2017-11-18 12:00:00 18.2 11 Sudoeste 17 Sudoeste 0 1016.6 -0.2 53
2017-11-18 11:00:00 17.4 9 Sudoeste 15 Sudoeste 0 1016.9 0.4 40
2017-11-18 10:00:00 13.8 9 Oeste 13 Oeste 0 1016.9 0.8 51
2017-11-18 09:00:00 9.4 8 Sudoeste 13 Sudoeste 0 1016.8 1 68
2017-11-18 08:00:00 7.2 14 Sudoeste 17 Sudoeste 0 1016.5 0.6 75
2017-11-18 07:00:00 8.6 10 Sudoeste 11 Sudoeste 0 1016.1 0 68
2017-11-18 06:00:00 9 8 Oeste 15 Oeste 0 1015.8 -0.4 70
2017-11-18 05:00:00 8.3 8 Oeste 11 Oeste 0 1015.9 -0.4 78
2017-11-18 04:00:00 8.2 11 Oeste 13 Oeste 0 1016.1 -0.6 81
2017-11-18 03:00:00 8.8 7 Oeste 9 Oeste 0 1016.2 -0.5 84
2017-11-18 02:00:00 10 4 Oeste 9 Oeste 0 1016.3 -0.3 74
2017-11-18 01:00:00 10.3 10 Oeste 11 Oeste 0 1016.7 0.2 81
2017-11-18 00:00:00 10.9 8 Noroeste 11 Oeste 0 1016.7 0.4 86
2017-11-17 23:00:00 10.5 8 Oeste 9 Oeste 0 1016.6 0.4 91
2017-11-17 22:00:00 12.8 8 Oeste 15 Oeste 0 1016.5 0.6 83
2017-11-17 21:00:00 12.4 9 Noroeste 11 Oeste 0 1016.3 0.6 86
2017-11-17 20:00:00 13.3 9 Oeste 13 Oeste 0 1016.2 0.5 85
2017-11-17 19:00:00 13.5 11 Oeste 11 Oeste 0 1015.9 0.2 84
2017-11-17 18:00:00 15.4 0 Calma 15 Sur 0 1015.7 -0.2 78
2017-11-17 17:00:00 17.2 9 Sur 17 Sur 0 1015.7 -0.7 70
2017-11-17 16:00:00 18.2 10 Sur 18 Sudeste 0 1015.7 -1.3 61
2017-11-17 15:00:00 19.4 4 Sur 18 Sur 0 1015.9 -1.8 51
2017-11-17 14:00:00 19.4 8 Sur 18 Sudoeste 0 1016.4 -1.5 49
2017-11-17 13:00:00 18.6 10 Sur 18 Sur 0 1017 -0.6 52
2017-11-17 12:00:00 17.7 6 Sudoeste 13 Oeste 0 1017.7 0.3 53
2017-11-17 11:00:00 16.3 5 Oeste 15 Oeste 0 1017.9 0.7 55
2017-11-17 10:00:00 14.4 2 Oeste 13 Oeste 0 1017.6 0.8 57
2017-11-17 09:00:00 10.9 12 Oeste 17 Oeste 0 1017.4 0.8 67
2017-11-17 08:00:00 8.4 10 Oeste 15 Oeste 0 1017.2 0.4 75
2017-11-17 07:00:00 8.6 10 Oeste 15 Oeste 0 1016.8 -0.1 77
2017-11-17 06:00:00 9.2 10 Noroeste 17 Noroeste 0 1016.6 -0.5 77
2017-11-17 05:00:00 9.1 6 Oeste 13 Oeste 0 1016.8 -0.3 78
2017-11-17 04:00:00 9.6 11 Oeste 15 Noroeste 0 1016.9 -0.6 79
2017-11-17 03:00:00 10.1 11 Oeste 15 Oeste 0 1017.1 -0.6 81
2017-11-17 02:00:00 10.2 11 Oeste 15 Oeste 0 1017.1 -0.6 84
2017-11-17 01:00:00 10.4 10 Oeste 13 Noroeste 0 1017.5 -0.2 85
2017-11-17 00:00:00 10.7 11 Oeste 13 Oeste 0 1017.7 0.2 87
2017-11-16 23:00:00 -- 9 Noroeste 15 Noroeste 0 1017.7 0.5 --
2017-11-16 22:00:00 11.2 9 Noroeste 11 Noroeste 0 1017.7 0.9 88
2017-11-16 21:00:00 11.4 5 Oeste 9 Oeste 0 1017.5 1 86
2017-11-16 20:00:00 13.6 2 Noroeste 9 Noroeste 0 1017.2 1 77
2017-11-16 19:00:00 13.7 2 Noroeste 5 Noroeste 0 1016.8 0.8 77
2017-11-16 18:00:00 15 0 Calma 15 Sudeste 0 1016.5 0.7 75
2017-11-16 17:00:00 17.2 10 Sudeste 17 Sudeste 0 1016.2 0.2 65
2017-11-16 16:00:00 18.1 8 Sur 21 Sudeste 0 1016 -0.4 58
2017-11-16 15:00:00 18.9 9 Sur 18 Sudeste 0 1015.8 -1.2 32
2017-11-16 14:00:00 18.9 6 Este 17 Este 0 1016 -1.3 34
2017-11-16 13:00:00 18.8 8 Este 13 Este 0 1016.4 -0.7 32
2017-11-16 12:00:00 18.1 5 Sudeste 13 Sudeste 0 1017 0.3 37
2017-11-16 11:00:00 17 0 Calma 8 Sur 0 1017.3 1.2 40
2017-11-16 10:00:00 14.5 3 Sur 8 Sudoeste 0 1017.1 1.3 44
2017-11-16 09:00:00 10.8 0 Calma 8 Oeste 0 1016.7 1.3 53
2017-11-16 08:00:00 7.5 5 Oeste 11 Oeste 0 1016.1 0.9 57
2017-11-16 07:00:00 7.7 8 Oeste 15 Oeste 0 1015.8 0.5 57
2017-11-16 06:00:00 6.9 10 Oeste 11 Oeste 0 1015.4 -0.1 67
2017-11-16 05:00:00 7.5 7 Oeste 11 Oeste 0 1015.2 -0.2 66
2017-11-16 04:00:00 7.5 9 Oeste 15 Oeste 0 1015.3 -0.4 66
2017-11-16 03:00:00 8.4 9 Oeste 15 Noroeste 0 1015.5 -0.3 63
2017-11-16 02:00:00 8.3 14 Oeste 17 Oeste 0 1015.4 -0.3 71
2017-11-16 01:00:00 9.3 6 Oeste 9 Oeste 0 1015.7 0 70
2017-11-16 00:00:00 9.4 4 Oeste 11 Oeste 0 1015.8 0.4 75
2017-11-15 23:00:00 9.2 5 Oeste 9 Noroeste 0 1015.7 0.6 81
2017-11-15 22:00:00 10.2 3 Oeste 9 Oeste 0 1015.7 0.8 78
2017-11-15 21:00:00 10.7 8 Oeste 13 Oeste 0 1015.4 1 76
2017-11-15 20:00:00 12.3 11 Oeste 11 Oeste 0 1015.1 0.8 71
2017-11-15 19:00:00 13.7 8 Sudoeste 9 Sudoeste 0 1014.9 0.5 67
2017-11-15 18:00:00 15.8 8 Sur 22 Sur 0 1014.4 -0.2 61
2017-11-15 17:00:00 17.5 14 Sur 26 Sur 0 1014.3 -0.8 58
2017-11-15 16:00:00 18.4 15 Sur 28 Sur 0 1014.4 -1.9 53
2017-11-15 15:00:00 18.9 14 Sur 33 Sudoeste 0 1014.6 -2.7 42
2017-11-15 14:00:00 18.7 20 Sudoeste 30 Sur 0 1015.1 -2.8 42
2017-11-15 13:00:00 18 17 Sudoeste 30 Sudoeste 0 1016.3 -1.6 46
2017-11-15 12:00:00 17.1 14 Sudoeste 24 Oeste 0 1017.3 -0.5 50
2017-11-15 11:00:00 16 12 Sudoeste 17 Sudoeste 0 1017.9 0.4 48
2017-11-15 10:00:00 13.9 10 Oeste 13 Oeste 0 1017.9 0.8 53
2017-11-15 09:00:00 10.2 6 Oeste 13 Oeste 0 1017.8 0.8 65
2017-11-15 08:00:00 7.1 12 Oeste 15 Oeste 0 1017.5 0.6 76
2017-11-15 07:00:00 7.1 8 Oeste 13 Oeste 0 1017.1 0.1 78
2017-11-15 06:00:00 7.7 11 Oeste 15 Oeste 0 1017 -0.3 76
2017-11-15 05:00:00 7.9 12 Oeste 15 Oeste 0 1016.9 -0.6 76
2017-11-15 04:00:00 8.1 12 Oeste 15 Oeste 0 1017 -0.6 75
2017-11-15 03:00:00 8.9 11 Noroeste 18 Noroeste 0 1017.3 -0.3 74
2017-11-15 02:00:00 8.9 12 Noroeste 15 Noroeste 0 1017.5 -0.1 73
2017-11-15 01:00:00 10.2 12 Noroeste 13 Noroeste 0 1017.6 0.1 68
2017-11-15 00:00:00 9.9 7 Noroeste 15 Norte 0 1017.6 0.4 67
2017-11-14 23:00:00 11.5 7 Noroeste 17 Nordeste 0 1017.6 1 60
2017-11-14 22:00:00 12.8 12 Norte 21 Norte 0 1017.5 1.5 54
2017-11-14 21:00:00 12.8 11 Norte 17 Norte 0 1017.2 2 56
2017-11-14 20:00:00 11.7 5 Norte 9 Norte 0 1016.6 2.1 63
2017-11-14 19:00:00 12.4 4 Norte 8 Norte 0 1016 1.7 62
2017-11-14 18:00:00 13.3 5 Sudeste 15 Sudeste 0 1015.2 0.8 57
2017-11-14 17:00:00 15.9 11 Sudeste 18 Sudeste 0 1014.5 -0.2 45
2017-11-14 16:00:00 16.9 11 Sudeste 21 Sudeste 0 1014.3 -0.7 42
2017-11-14 15:00:00 17.1 14 Sudeste 26 Este 0 1014.4 -1 40
2017-11-14 14:00:00 17.6 12 Este 22 Este 0 1014.7 -1 35
2017-11-14 13:00:00 17.4 6 Sudoeste 26 Sudeste 0 1015 -0.6 34
2017-11-14 12:00:00 16.8 4 Sur 13 Sudeste 0 1015.4 0.3 34
2017-11-14 11:00:00 15.2 8 Oeste 15 Noroeste 0 1015.7 1.3 31
2017-11-14 10:00:00 12.5 11 Oeste 21 Oeste 0 1015.6 1.6 32
2017-11-14 09:00:00 9.7 10 Sudoeste 17 Oeste 0 1015.1 1.9 37
2017-11-14 08:00:00 7.9 13 Oeste 24 Oeste 0 1014.4 1.2 39
2017-11-14 07:00:00 7.8 17 Oeste 22 Oeste 0 1014 0.9 39
2017-11-14 06:00:00 8.1 14 Noroeste 21 Oeste 0 1013.2 -0.1 37
2017-11-14 05:00:00 8.2 14 Oeste 22 Oeste 0 1013.2 0.2 37
2017-11-14 04:00:00 9 18 Noroeste 26 Oeste 0 1013.1 -0.4 33
2017-11-14 03:00:00 9.3 17 Oeste 24 Oeste 0 1013.3 -0.4 32
2017-11-14 02:00:00 9.3 17 Oeste 21 Oeste 0 1013 -0.8 32
2017-11-14 01:00:00 10.1 12 Noroeste 28 Noroeste 0 1013.5 -0.2 29
2017-11-14 00:00:00 11.1 16 Oeste 24 Oeste 0 1013.7 0.3 27
2017-11-13 23:00:00 10.7 13 Noroeste 18 Noroeste 0 1013.8 0.7 29
2017-11-13 22:00:00 12.2 9 Noroeste 13 Norte 0 1013.7 1.3 27
2017-11-13 21:00:00 14 9 Norte 32 Noroeste 0 1013.4 2.1 24
2017-11-13 20:00:00 14.5 6 Norte 21 Norte 0 1013.1 2.7 24
2017-11-13 19:00:00 16.7 18 Norte 33 Norte 0 1012.4 2.4 21
2017-11-13 18:00:00 17.8 24 Norte 33 Norte 0 1011.3 1.8 20
2017-11-13 17:00:00 20.5 15 Norte 39 Norte 0 1010.4 0.2 17
2017-11-13 16:00:00 21.1 27 Noroeste 41 Noroeste 0 1010 -0.5 14
2017-11-13 15:00:00 21.4 16 Noroeste 35 Nordeste 0 1009.5 -1.3 23
2017-11-13 14:00:00 21.5 26 Noroeste 37 Norte 0 1010.2 -0.9 17
2017-11-13 13:00:00 21 16 Norte 37 Noroeste 0 1010.5 -0.7 26
2017-11-13 12:00:00 20.7 14 Norte 30 Norte 0 1010.8 -- 28
2017-11-13 11:00:00 20.6 4 Oeste 30 Noroeste 0 1011.1 1.6 28
2017-11-13 10:00:00 18.3 15 Noroeste 48 Noroeste 0 1011.2 2 37
2017-11-13 09:00:00 16.4 34 Noroeste 58 Noroeste 0 -- -- 44
2017-11-13 08:00:00 16.1 35 Noroeste 67 Noroeste 0 1009.5 0.4 44
2017-11-13 07:00:00 16.6 25 Noroeste 55 Noroeste 0 1009.2 -0.4 40
2017-11-13 06:00:00 16.6 39 Noroeste 58 Noroeste 0 1009.3 -0.9 40
2017-11-13 05:00:00 16 12 Oeste 39 Noroeste 0 1009.1 -1.9 41
2017-11-13 04:00:00 16.4 26 Oeste 46 Oeste 0 1009.6 -1.6 39
2017-11-13 03:00:00 16 18 Oeste 32 Oeste 0 1010.2 -1.3 39
2017-11-13 02:00:00 16.6 18 Oeste 35 Noroeste 0 1011 -0.9 35
2017-11-13 01:00:00 17 14 Oeste 26 Oeste 0 1011.2 -0.9 34
2017-11-13 00:00:00 16.7 14 Sudoeste 37 Oeste 0 1011.5 -0.8 37
2017-11-12 23:00:00 17.1 18 Oeste 32 Oeste 0 1011.9 -0.6 36
2017-11-12 22:00:00 17.3 20 Oeste 41 Oeste 0 1012.1 -0.4 37
2017-11-12 21:00:00 13.8 17 Oeste 22 Oeste 0 1012.3 -0.2 73
2017-11-12 20:00:00 14.5 10 Oeste 13 Oeste 0 1012.5 0 74
2017-11-12 19:00:00 15.1 4 Oeste 8 Oeste 0 1012.5 -0.1 75
2017-11-12 18:00:00 17.2 0 Calma 15 Este 0 1012.5 -0.5 69
2017-11-12 17:00:00 19.9 10 Nordeste 17 Este 0 1012.5 -1.1 57
2017-11-12 16:00:00 20.3 13 Este 22 Este 0 1012.6 -1.7 51
2017-11-12 15:00:00 21 15 Este 24 Este 0 1013 -2.2 47
2017-11-12 14:00:00 21.9 15 Este 22 Este 0 1013.6 -2.3 41
2017-11-12 13:00:00 22.6 8 Sur 13 Sudoeste 0 1014.3 -1.9 30
2017-11-12 12:00:00 21.8 5 Sudeste 21 Oeste 0 1015.2 -0.9 33
2017-11-12 11:00:00 19.9 14 Oeste 30 Noroeste 0 1015.9 -0.1 32
2017-11-12 10:00:00 18.3 21 Noroeste 32 Noroeste 0 1016.2 0.5 36
2017-11-12 09:00:00 17 19 Noroeste 30 Noroeste 0 1016.1 0.3 41
2017-11-12 08:00:00 14.6 18 Oeste 37 Noroeste 0 1016 0.4 49
2017-11-12 07:00:00 15.7 23 Noroeste 35 Noroeste 0 1015.7 -- 46
2017-11-12 06:00:00 15.5 14 Oeste 33 Noroeste 0 1015.8 -0.6 46
2017-11-12 05:00:00 15.5 24 Noroeste 35 Oeste 0 1015.6 -1.2 46
2017-11-12 04:00:00 16.1 23 Oeste 30 Noroeste 0 -- -- 46
2017-11-12 03:00:00 15.4 14 Oeste 18 Oeste 0 1016.4 -1.8 48
2017-11-12 02:00:00 15.4 11 Oeste 24 Oeste 0 1016.8 -1.8 49
2017-11-12 01:00:00 14.2 14 Oeste 18 Oeste 0 1017.3 -1.8 55
2017-11-12 00:00:00 12.9 10 Oeste 21 Oeste 0 1018.2 -1 65
2017-11-11 23:00:00 13.3 11 Oeste 15 Noroeste 0 1018.6 -0.9 65
2017-11-11 22:00:00 13.3 9 Noroeste 13 Norte 0 1019.1 -0.7 72
2017-11-11 21:00:00 14.1 6 Norte 11 Norte 0 1019.2 -0.2 71
2017-11-11 20:00:00 15.3 8 Norte 13 Nordeste 0 1019.5 0.4 65
2017-11-11 19:00:00 17 5 Nordeste 9 Norte 0 1019.8 0.8 59
2017-11-11 18:00:00 17.1 0 Calma 17 Sur 0 1019.4 0.3 58
2017-11-11 17:00:00 19.2 13 Sur 22 Sur 0 1019.1 -0.4 49
2017-11-11 16:00:00 20.8 14 Sur 22 Sur 0 1019 -1.1 40
2017-11-11 15:00:00 21.7 13 Sur 22 Sur 0 1019.1 -1.7 33
2017-11-11 14:00:00 21.9 6 Sur 18 Sudeste 0 1019.5 -1.6 30
2017-11-11 13:00:00 21.2 6 Sur 13 Sur 0 1020.1 -0.9 31
2017-11-11 12:00:00 20.7 4 Sudeste 15 Oeste 0 1020.8 -0.1 32
2017-11-11 11:00:00 19.2 10 Oeste 22 Noroeste 0 1021.1 0.5 37
2017-11-11 10:00:00 17.1 12 Noroeste 42 Noroeste 0 1021 0.5 43
2017-11-11 09:00:00 14.8 13 Oeste 22 Noroeste 0 1020.9 0.7 50
2017-11-11 08:00:00 13.3 17 Noroeste 35 Oeste 0 1020.6 -0.1 54
2017-11-11 07:00:00 13.9 21 Noroeste 32 Noroeste 0 1020.5 -0.4 52
2017-11-11 06:00:00 13.5 22 Noroeste 30 Oeste 0 1020.2 -0.9 53
2017-11-11 05:00:00 12.2 18 Oeste 26 Noroeste 0 1020.7 -0.8 56
2017-11-11 04:00:00 12.5 9 Oeste 17 Noroeste 0 1020.9 -1.1 53
2017-11-11 03:00:00 10.6 12 Noroeste 22 Sudoeste 0 1021.1 -0.9 57
2017-11-11 02:00:00 10.3 9 Sudoeste -- -- -- 1021.5 -0.7 58
2017-11-11 01:00:00 10.2 8 Noroeste 15 Oeste 0 1022 -0.3 59
2017-11-11 00:00:00 10.7 5 Oeste 13 Oeste 0 1022 -0.1 60
2017-11-10 23:00:00 11.7 7 Noroeste 17 Noroeste 0 1022.2 0.3 59
2017-11-10 22:00:00 11.2 8 Noroeste 11 Noroeste 0 1022.3 0.6 62
2017-11-10 21:00:00 12.1 4 Noroeste 11 Noroeste 0 1022.1 0.8 60
2017-11-10 20:00:00 12.7 6 Norte 11 Norte 0 1021.9 1 59
2017-11-10 19:00:00 14.8 5 Norte 8 Norte 0 1021.7 1.3 53
2017-11-10 18:00:00 14.9 0 Calma 11 Sudeste 0 1021.3 0.8 51
2017-11-10 17:00:00 17.6 8 Sudeste 21 Sur 0 1020.9 0 39
2017-11-10 16:00:00 18.5 13 Sur 26 Sur 0 1020.4 -1.2 34
2017-11-10 15:00:00 19.1 14 Sur 24 Sudeste 0 1020.5 -2 32
2017-11-10 14:00:00 19.5 10 Sur 22 Sur 0 1020.9 -1.4 26
2017-11-10 13:00:00 18.6 8 Sudeste 17 Sur 0 1021.6 -0.3 30
2017-11-10 12:00:00 17.6 6 Sudeste 17 Sur 0 1022.5 0.8 33
2017-11-10 11:00:00 16.2 5 Sudoeste 15 Noroeste 0 1022.3 1.2 35
2017-11-10 10:00:00 13.9 11 Oeste 21 Noroeste 0 1021.9 1.1 41
2017-11-10 09:00:00 11.3 16 Noroeste 24 Oeste 0 1021.7 1.1 49
2017-11-10 08:00:00 9.1 17 Noroeste 24 Noroeste 0 1021.1 0.7 56
2017-11-10 07:00:00 9.2 16 Noroeste 22 Noroeste 0 1020.8 0.8 55
2017-11-10 06:00:00 9.1 9 Oeste 18 Noroeste 0 1020.6 0.3 56
2017-11-10 05:00:00 9.1 8 Oeste 21 Noroeste 0 1020.4 0 55
2017-11-10 04:00:00 9.4 12 Oeste 18 Noroeste 0 1020 -0.7 53
2017-11-10 03:00:00 9.6 12 Noroeste 17 Noroeste 0 1020.3 0.2 52
2017-11-10 02:00:00 9.8 12 Noroeste -- -- -- 1020.4 0 52
2017-11-10 01:00:00 9.9 11 Noroeste 21 Noroeste 0 1020.7 0.6 53
2017-11-10 00:00:00 8.9 10 Noroeste 15 Oeste 0 1020.1 0.3 62
2017-11-09 23:00:00 9.6 14 Oeste 18 Oeste 0 1020.4 0.6 56
2017-11-09 22:00:00 9.8 12 Oeste -- -- 0 1020.1 0.6 61
2017-11-09 21:00:00 10.1 8 Oeste 13 Oeste 0 1019.8 1.1 61
2017-11-09 20:00:00 11.8 7 Oeste 9 Oeste 0 1019.8 1.2 54
2017-11-09 19:00:00 12 5 Oeste 8 Oeste 0 1019.5 0.9 58
2017-11-09 18:00:00 14 0 Calma 13 Sudeste 0 1018.7 0 50
2017-11-09 17:00:00 16 8 Este 17 Este 0 1018.6 -0.2 39
2017-11-09 16:00:00 16.8 9 Este 17 Este 0 1018.6 -0.5 36
2017-11-09 15:00:00 16.6 11 Este 18 Este 0 1018.7 -1 36
2017-11-09 14:00:00 16.6 12 Este 24 Este 0 1018.8 -0.8 33
2017-11-09 13:00:00 17.6 17 Este 28 Este 0 1019.1 -0.4 27
2017-11-09 12:00:00 16.6 9 Oeste 22 Norte 0 1019.7 0.4 31
2017-11-09 11:00:00 15.4 11 Norte 22 Oeste 0 1019.6 1.2 33
2017-11-09 10:00:00 13.7 11 Oeste 17 Noroeste 0 1019.5 1.8 40
2017-11-09 09:00:00 11.3 7 Sur 22 Noroeste 0 1019.3 1.6 47
2017-11-09 08:00:00 9.2 11 Noroeste 22 Noroeste 0 1018.4 0.8 54
2017-11-09 07:00:00 9.6 14 Noroeste 24 Noroeste 0 1017.7 0.6 54
2017-11-09 06:00:00 10.9 12 Noroeste 21 Noroeste 0 1017.7 0.5 53
2017-11-09 05:00:00 11 12 Oeste 17 Oeste 0 1017.6 1 66
2017-11-09 04:00:00 12.2 12 Oeste 17 Oeste 0 1017.1 0.3 87
2017-11-09 03:00:00 12.1 6 Sudoeste 39 Este 4.1 1017.2 0.2 91
2017-11-09 02:00:00 15.5 25 Este -- -- -- 1016.6 -0.5 71
2017-11-09 01:00:00 14.4 3 Norte 11 Norte 0 1016.8 0 66
2017-11-09 00:00:00 13.3 8 Noroeste 9 Noroeste 0 1017 0.3 75
2017-11-08 23:00:00 14.4 -- -- -- -- 0 1017.1 0.4 70
2017-11-08 22:00:00 14.2 6 Noroeste 13 Norte 0 1016.8 0.4 71
2017-11-08 21:00:00 15.2 7 Noroeste 11 Norte 0 1016.7 0.9 69
2017-11-08 20:00:00 16.9 6 Nordeste 11 Norte 0 1016.7 1.1 65
2017-11-08 19:00:00 17.3 0 Calma 11 Norte 0 1016.4 0.8 64
2017-11-08 18:00:00 16.8 9 Nordeste 21 Este 0 1015.8 0.2 64
2017-11-08 17:00:00 19 12 Este 22 Este 0 1015.6 -0.3 56
2017-11-08 16:00:00 19.7 12 Este 26 Este 0 1015.6 -1 47
2017-11-08 15:00:00 20.2 18 Este 28 Este 0 1015.6 -1.6 41
2017-11-08 14:00:00 20.3 15 Este 24 Este 0 1015.9 -1.3 39
2017-11-08 13:00:00 20.8 14 Este 21 Este 0 1016.6 -0.6 36
2017-11-08 12:00:00 20.7 4 Sudeste 17 Sudeste 0 1017.2 0.3 32
2017-11-08 11:00:00 19.8 4 Noroeste 17 Oeste 0 1017.2 -- 29
2017-11-08 10:00:00 17.7 7 Noroeste 22 Norte 0 1017.2 1.3 34
2017-11-08 09:00:00 15.3 16 Noroeste 24 Noroeste 0 1016.9 -- 41
2017-11-08 08:00:00 13.7 7 Noroeste 18 Oeste 0 -- -- --
2017-11-08 07:00:00 11.3 6 Oeste 15 Oeste 0 1015.9 -- 55
2017-11-08 06:00:00 14.6 0 Calma 15 Noroeste 0 -- -- 42
2017-11-08 05:00:00 13.9 11 Oeste 30 Noroeste 0 1015.6 0 44
2017-11-08 04:00:00 13 14 Noroeste 22 Noroeste 0 -- -- 47
2017-11-08 03:00:00 13.3 13 Oeste 17 Noroeste 0 1015.5 -0.1 46
2017-11-08 02:00:00 9.2 13 Sudoeste -- -- -- 1015.6 0 63
2017-11-08 01:00:00 11.2 10 Sudoeste 17 Noroeste 0 1015.7 0 54
2017-11-08 00:00:00 11.7 12 Oeste 17 Noroeste 0 1015.6 0 54
2017-11-07 23:00:00 11.1 10 Noroeste 17 Noroeste 0 1015.6 0.1 58
2017-11-07 22:00:00 10.8 11 Noroeste 15 Noroeste 0 1015.7 0.5 62
2017-11-07 21:00:00 11.4 7 Noroeste 11 Noroeste 0 1015.6 1.2 60
2017-11-07 20:00:00 12.5 6 Noroeste 11 Noroeste 0 1015.5 1.4 56
2017-11-07 19:00:00 12.6 -- -- -- -- 0 1015.2 1.3 56
2017-11-07 18:00:00 14.4 4 Sudeste 15 Este 0 1014.4 0.6 49
2017-11-07 17:00:00 17 11 Este 21 Este 0 1014.1 0 37
2017-11-07 16:00:00 17.5 12 Sudeste 24 Sudeste 0 1013.9 -0.5 35
2017-11-07 15:00:00 18.6 14 Este 22 Este 0 1013.8 -1.4 26
2017-11-07 14:00:00 18.3 5 Oeste 26 Norte 0 1014.1 -1.2 20
2017-11-07 13:00:00 17.4 8 Sudoeste 18 Norte 0 1014.4 -0.7 26
2017-11-07 12:00:00 16.7 7 Oeste 21 Norte 0 1015.2 -- 29
2017-11-07 11:00:00 15.6 14 Noroeste 28 Oeste 0 1015.3 0.8 30
2017-11-07 10:00:00 13.1 22 Noroeste 33 Oeste 0 1015.1 1.2 38
2017-11-07 09:00:00 11.2 21 Oeste 30 Oeste 0 -- -- 46
2017-11-07 08:00:00 10.5 11 Noroeste 30 Noroeste 0 1014.5 0.6 41
2017-11-07 07:00:00 10.3 23 Noroeste 35 Noroeste 0 1013.9 -- 46
2017-11-07 06:00:00 10.4 3 Sudoeste 15 Oeste 0 1013.9 -0.3 46
2017-11-07 05:00:00 11.4 2 Nordeste 24 Sur 0 1013.9 -0.4 42
2017-11-07 04:00:00 11.6 19 Noroeste 26 Noroeste 0 -- -- --
2017-11-07 03:00:00 11.8 17 Noroeste 26 Oeste 0 1014.2 -0.3 41
2017-11-07 02:00:00 12.3 15 Oeste -- -- -- 1014.3 -0.3 40
2017-11-07 01:00:00 12.9 20 Noroeste 24 Noroeste 0 1014.4 0.1 39
2017-11-07 00:00:00 13.6 17 Noroeste 28 Noroeste 0 1014.5 0.5 37
2017-11-06 23:00:00 13.5 14 Noroeste 21 Noroeste 0 1014.6 -- 39
2017-11-06 22:00:00 13.3 14 Noroeste 21 Noroeste 0 1014.3 0.4 41
2017-11-06 21:00:00 11.8 13 Oeste 15 Oeste 0 1014 0.2 49
2017-11-06 20:00:00 12.9 11 Oeste 15 Oeste 0 -- -- 44
2017-11-06 19:00:00 15.3 8 Oeste 17 Oeste 0 1013.9 -0.3 36
2017-11-06 18:00:00 17.9 14 Oeste 32 Oeste 0 1013.8 -0.8 29
2017-11-06 17:00:00 19.5 23 Oeste 33 Oeste 0 1014 -1.3 26
2017-11-06 16:00:00 20.1 20 Noroeste 37 Oeste 0 1014.2 -1.9 23
2017-11-06 15:00:00 20.3 26 Oeste 37 Oeste 0 1014.6 -2.6 23
2017-11-06 14:00:00 20.1 16 Noroeste 32 Oeste 0 1015.3 -2.3 23
2017-11-06 13:00:00 19.6 22 Oeste 37 Oeste 0 1016.1 -1.9 26
2017-11-06 12:00:00 19.2 20 Noroeste 33 Noroeste 0 1017.2 -0.6 26
2017-11-06 11:00:00 17.9 17 Noroeste 37 Norte 0 1017.6 0.2 32
2017-11-06 10:00:00 16 12 Oeste 28 Noroeste 0 1018 1 37
2017-11-06 09:00:00 13.6 15 Oeste 32 Noroeste 0 1017.8 0.8 44
2017-11-06 08:00:00 12.7 20 Noroeste 35 Noroeste 0 1017.4 0.6 47
2017-11-06 07:00:00 13 21 Noroeste 30 Noroeste 0 1017 0.2 46
2017-11-06 06:00:00 13 19 Noroeste 30 Noroeste 0 1017 -- 46
2017-11-06 05:00:00 13.3 15 Oeste 30 Noroeste 0 1016.8 -0.4 46
2017-11-06 04:00:00 14 19 Noroeste 33 Noroeste 0 1016.8 -0.5 44
2017-11-06 03:00:00 14.2 19 Noroeste 32 Noroeste 0 -- -- --
2017-11-06 02:00:00 14.4 11 Oeste 24 Noroeste 0 1017.2 -0.1 42
2017-11-06 01:00:00 15.1 8 Sudoeste 26 Noroeste 0 1017.3 0.7 39
2017-11-06 00:00:00 16 5 Noroeste 21 Noroeste 0 1017.4 1.2 36
2017-11-05 23:00:00 16.6 15 Noroeste 30 Noroeste 0 1017.3 1.6 35
2017-11-05 22:00:00 16.8 22 Noroeste 28 Noroeste 0 1016.6 1.9 35
2017-11-05 21:00:00 17.6 15 Oeste 37 Noroeste 0 1016.2 2.5 32
2017-11-05 20:00:00 18.9 27 Noroeste 35 Noroeste 0 1015.7 2.7 30
2017-11-05 19:00:00 20 22 Oeste 37 Oeste 0 1014.7 2.2 26
2017-11-05 18:00:00 21.3 19 Oeste 42 Noroeste 0 1013.7 1.5 28
2017-11-05 17:00:00 23.1 30 Noroeste 42 Oeste 0 1013 0.7 25
2017-11-05 16:00:00 23.9 33 Noroeste 48 Noroeste 0 1012.5 -0.4 26
2017-11-05 15:00:00 24.7 27 Noroeste 42 Noroeste 0 1012.2 -1.3 24
2017-11-05 14:00:00 24.4 30 Noroeste 46 Noroeste 0 1012.3 -1.3 24
2017-11-05 13:00:00 23.5 15 Noroeste 37 Oeste 0 1012.9 -0.5 29
2017-11-05 12:00:00 22.4 23 Noroeste 42 Norte 0 1013.5 0.6 33
2017-11-05 11:00:00 20.1 26 Noroeste 45 Noroeste 0 1013.6 1.1 46
2017-11-05 10:00:00 19.7 25 Noroeste 41 Noroeste 0 1013.4 1.2 49
2017-11-05 09:00:00 18.3 25 Oeste 42 Oeste 0 1012.9 0.9 58
2017-11-05 08:00:00 16.6 18 Oeste 26 Oeste 0 1012.5 0.9 65
2017-11-05 07:00:00 16.8 18 Oeste 28 Oeste 0 1012.2 0.9 65
2017-11-05 06:00:00 14.2 15 Sudoeste 22 Sudoeste 0 1012 0.7 74
2017-11-05 05:00:00 15.7 12 Sudoeste 32 Oeste 0 1011.6 0.2 69
2017-11-05 04:00:00 16.2 21 Oeste 35 Oeste 0 1011.3 -0.2 66
2017-11-05 03:00:00 16 16 Oeste 21 Oeste 0 1011.3 0.3 64
2017-11-05 02:00:00 15.3 13 Oeste 17 Oeste 0 1011.4 0.6 66
2017-11-05 01:00:00 16.3 0 Calma 15 Oeste 0 1011.5 1.5 60
2017-11-05 00:00:00 16.3 14 Oeste 21 Oeste 0 1011 1.4 60
2017-11-04 23:00:00 16.8 12 Oeste 30 Noroeste 0 1010.8 1.7 59
2017-11-04 22:00:00 17.4 14 Oeste 22 Oeste 0 1010 1.4 57
2017-11-04 21:00:00 15.9 14 Oeste 24 Noroeste 0 1009.6 1.8 69
2017-11-04 20:00:00 16.8 9 Sudoeste 11 Sudoeste 0 1009.1 1.5 66
2017-11-04 19:00:00 18.1 8 Sudoeste 13 Sudoeste 0 1008.6 -- 54
2017-11-04 18:00:00 19.9 9 Sudoeste 22 Sudoeste 0 1007.8 0.6 47
2017-11-04 17:00:00 22.8 17 Sudoeste 35 Oeste 0 1007.6 -0.3 34
2017-11-04 16:00:00 22.5 16 Sudoeste 26 Oeste 0 -- -- 42
2017-11-04 15:00:00 23 21 Oeste 41 Oeste 0 1007.2 -1.5 36
2017-11-04 14:00:00 23.5 31 Oeste 45 Sudoeste 0 1007.9 -1.3 38
2017-11-04 13:00:00 23 13 Sur 22 Sudoeste 0 1008.4 -0.8 58
2017-11-04 12:00:00 24 11 Sudoeste 24 Oeste 0 1008.7 -0.6 41
2017-11-04 11:00:00 23.1 13 Sudoeste 18 Sudoeste 0 1009.2 0.4 50
2017-11-04 10:00:00 21 10 Oeste 18 Oeste 0 1009.2 0.6 59
2017-11-04 09:00:00 17.2 11 Oeste 15 Oeste 0 1009.3 1.2 79
2017-11-04 08:00:00 16.6 10 Oeste 15 Oeste 0 1008.8 0.8 89
2017-11-04 07:00:00 16.2 11 Oeste 18 Sudoeste 0 1008.6 0.5 91
2017-11-04 06:00:00 16.6 10 Sudoeste 17 Sur 0 1008.1 -0.6 89
2017-11-04 05:00:00 17.6 4 Sudeste 15 Noroeste 0 1008 -1.5 84
2017-11-04 04:00:00 17.3 5 Noroeste 18 Sudoeste 0 1008.1 -1.5 88
2017-11-04 03:00:00 17.7 5 Oeste 13 Oeste 0 1008.7 -0.8 87
2017-11-04 02:00:00 17.6 10 Oeste 13 Noroeste 0 1009.5 0.8 85
2017-11-04 01:00:00 17.6 10 Oeste 17 Sudoeste 0 1009.6 -0.2 85
2017-11-04 00:00:00 17.9 12 Sudoeste 21 Sudoeste 0 1009.5 -0.2 86
2017-11-03 23:00:00 17.5 9 Noroeste 18 Noroeste 0 1008.7 -1.1 88
2017-11-03 22:00:00 17.7 6 Noroeste 13 Norte 0 1009.8 0.5 87
2017-11-03 21:00:00 18.2 5 Noroeste 9 Oeste 0 1009.7 0.4 85
2017-11-03 20:00:00 18.7 6 Oeste 11 Noroeste 0 1009.8 0.4 83
2017-11-03 19:00:00 19 0 Calma 5 Norte 0 1009.3 -0.1 83
2017-11-03 18:00:00 19.7 3 Este 15 Este 0 1009.3 -0.2 80
2017-11-03 17:00:00 20.7 9 Este 15 Este 0 1009.4 -0.8 73
2017-11-03 16:00:00 21.5 9 Sudeste 18 Sudeste 0 1009.4 -1.6 67
2017-11-03 15:00:00 22.2 11 Sudeste 22 Este 0 1009.5 -2.1 65
2017-11-03 14:00:00 22.2 3 Sur 13 Sur 0 1010.2 -1.5 59
2017-11-03 13:00:00 21.8 3 Sur 15 Noroeste 0 1011 -1.1 61
2017-11-03 12:00:00 21 0 Calma 15 Noroeste 0 1011.6 -0.3 65
2017-11-03 11:00:00 20.1 10 Noroeste 24 Oeste 0 1011.7 0.5 66
2017-11-03 10:00:00 18.6 15 Oeste 21 Oeste 0 1012.1 0.8 70
2017-11-03 09:00:00 17.7 12 Noroeste 17 Norte 0 1011.9 0.2 74
2017-11-03 08:00:00 15.6 0 Calma 17 Noroeste 0 1011.2 -0.7 81
2017-11-03 07:00:00 15.8 15 Noroeste 21 Noroeste 0 1011.3 -0.9 78
2017-11-03 06:00:00 15.2 11 Oeste 18 Noroeste 0 1011.7 -0.7 84
2017-11-03 05:00:00 15.7 12 Noroeste 17 Oeste 0 1011.9 -0.9 81
2017-11-03 04:00:00 15 9 Oeste 17 Noroeste 0 1012.2 -1.1 86
2017-11-03 03:00:00 16.1 12 Noroeste 13 Noroeste 0 1012.4 -1.5 83
2017-11-03 02:00:00 15.5 10 Noroeste 13 Noroeste 0 1012.8 -1.4 87
2017-11-03 01:00:00 16.2 10 Noroeste 17 Noroeste 0 1013.3 -1 82
2017-11-03 00:00:00 16.3 9 Noroeste 13 Noroeste 0 1013.9 -0.3 84
2017-11-02 23:00:00 17 8 Noroeste 18 Norte 0 1014.2 0 82
2017-11-02 22:00:00 17.3 9 Norte 15 Norte 0 1014.3 0.4 82
2017-11-02 21:00:00 17.1 9 Norte 13 Norte 0 1014.2 0.4 83
2017-11-02 20:00:00 18.3 6 Norte 11 Norte 0 1014.2 0.1 77
2017-11-02 19:00:00 19.2 7 Nordeste 15 Este 0 1013.9 -0.2 75
2017-11-02 18:00:00 20.2 11 Nordeste 21 Nordeste 0 1013.8 -0.6 72
2017-11-02 17:00:00 21.7 11 Este 24 Este 0 1014.1 -1 66
2017-11-02 16:00:00 21.9 15 Este 24 Este 0 1014.1 -1.7 63
2017-11-02 15:00:00 22 15 Este 28 Este 0 1014.4 -2.1 62
2017-11-02 14:00:00 22.5 12 Este 24 Este 0 1015.1 -1.7 62
2017-11-02 13:00:00 22.5 11 Este 24 Nordeste 0 1015.8 -1.1 60
2017-11-02 12:00:00 21.9 12 Este 22 Este 0 1016.5 -0.4 62
2017-11-02 11:00:00 22.1 11 Este 21 Este 0 1016.8 0.1 61
2017-11-02 10:00:00 21.6 9 Norte 17 Norte 0 1016.9 0.6 63
2017-11-02 09:00:00 18.2 0 Calma 13 Noroeste 0 1016.9 0.5 74
2017-11-02 08:00:00 15.6 10 Noroeste 13 Noroeste 0 1016.7 0.1 86
2017-11-02 07:00:00 16.1 10 Noroeste -- -- 0 1016.3 -0.5 85
2017-11-02 06:00:00 16.2 8 Noroeste 11 Noroeste 0 1016.4 -0.7 85
2017-11-02 05:00:00 16.2 8 Noroeste 11 Noroeste 0 1016.6 -0.9 86
2017-11-02 04:00:00 15.8 -- -- -- -- 0 1016.8 -1.2 87
2017-11-02 03:00:00 15.5 8 Norte 11 Norte 0 1017.1 -1.1 88
2017-11-02 02:00:00 15.8 9 Norte 13 Norte 0 1017.5 -1 86
2017-11-02 01:00:00 15.8 9 Norte 11 Norte 0 1018 -0.5 86
2017-11-02 00:00:00 16.1 9 Norte 18 Norte 0 1018.2 -0.1 84
2017-11-01 23:00:00 17.7 11 Norte 18 Norte 0 1018.5 0.3 77
2017-11-01 22:00:00 18.4 10 Norte 17 Norte 0 1018.5 0.6 75
2017-11-01 21:00:00 18.9 10 Norte 15 Norte 0 1018.3 0.7 77
2017-11-01 20:00:00 19 8 Nordeste 13 Nordeste 0 1018.2 0.7 79
2017-11-01 19:00:00 18.7 6 Este 13 Este 0 1017.9 0.5 79
2017-11-01 18:00:00 19.6 11 Este 15 Este 0 1017.6 -0.1 74
2017-11-01 17:00:00 20.8 9 Este 21 Sudeste 0 1017.5 -0.7 69
2017-11-01 16:00:00 22.2 12 Este 22 Este 0 1017.4 -1.4 58
2017-11-01 15:00:00 21.7 11 Este 22 Este 0 1017.7 -1.7 62
2017-11-01 14:00:00 22.2 13 Este 22 Sudeste 0 1018.2 -1.3 58
2017-11-01 13:00:00 22.6 14 Este 22 Norte 0 1018.8 -0.8 59
2017-11-01 12:00:00 21.9 13 Este 24 Este 0 1019.4 0.1 60
2017-11-01 11:00:00 22.2 14 Este 26 Nordeste 0 1019.5 0.7 64
2017-11-01 10:00:00 20.5 11 Norte 18 Norte 0 1019.6 1.4 67
2017-11-01 09:00:00 19.6 11 Norte 17 Norte 0 1019.3 1.3 69
2017-11-01 08:00:00 18.6 11 Norte 18 Nordeste 0 1018.8 0.7 72
2017-11-01 07:00:00 18.5 12 Norte 21 Nordeste 0 1018.2 0.1 73
2017-11-01 06:00:00 18.7 10 Norte 17 Norte 0 1018 -0.3 73
2017-11-01 05:00:00 18.6 10 Norte 17 Norte 0 1018.1 -0.4 73
2017-11-01 04:00:00 18.9 13 Norte 18 Norte 0 1018.1 -0.6 73
2017-11-01 03:00:00 18.6 11 Norte 17 Norte 0 1018.3 -0.5 73
2017-11-01 02:00:00 18.2 11 Norte 17 Norte 0 1018.5 -0.3 73
2017-11-01 01:00:00 18.2 10 Norte 15 Norte 0 1018.7 -0.1 73
2017-11-01 00:00:00 18.1 12 Norte 18 Norte 0 1018.8 0.4 77
2017-10-31 23:00:00 17.7 11 Norte 18 Nordeste 0 1018.8 0.9 80
2017-10-31 22:00:00 17.7 11 Norte 18 Nordeste 0 1018.8 1.3 85
2017-10-31 21:00:00 18.8 11 Nordeste 30 Nordeste 0 1018.4 1.3 82
2017-10-31 20:00:00 19.5 22 Este 32 Este 0 1017.9 1.2 81
2017-10-31 19:00:00 20 21 Este 33 Este 0 1017.5 1.2 76
2017-10-31 18:00:00 20 22 Este 33 Este 0 1017.1 0.8 73
2017-10-31 17:00:00 20.9 23 Este 30 Este 0 1016.7 0.1 70
2017-10-31 16:00:00 21.9 19 Este 30 Norte 0 1016.3 -0.6 65
2017-10-31 15:00:00 22.5 19 Este 30 Este 0 1016.3 -1.1 55
2017-10-31 14:00:00 22.6 17 Este 26 Este 0 1016.6 -1 54
2017-10-31 13:00:00 22.4 17 Este 24 Este 0 1016.9 -0.6 59
2017-10-31 12:00:00 22.3 13 Este 24 Este 0 1017.4 0.5 58
2017-10-31 11:00:00 21.7 8 Nordeste 18 Norte 0 1017.6 1.7 60
2017-10-31 10:00:00 20.2 8 Nordeste 15 Norte 0 1017.5 2.1 62
2017-10-31 09:00:00 18.9 8 Norte 17 Norte 0 1016.9 2 67
2017-10-31 08:00:00 17 9 Norte 15 Norte 0 1015.9 1 76
2017-10-31 07:00:00 16.7 8 Noroeste 11 Norte 0 1015.4 0.8 79
2017-10-31 06:00:00 16 7 Noroeste 11 Norte 0 1014.9 0.1 86
2017-10-31 05:00:00 15.6 9 Norte 11 Norte 0 1014.9 0.1 88
2017-10-31 04:00:00 16.3 9 Norte 11 Norte 0 1014.6 -0.4 84
2017-10-31 03:00:00 15.8 7 Norte -- -- 0 1014.8 -0.3 87
2017-10-31 02:00:00 16.7 9 Noroeste 11 Noroeste 0 1014.8 -0.2 84
2017-10-31 01:00:00 16.9 5 Noroeste 15 Norte 0 1015 0.2 87
2017-10-31 00:00:00 17.2 8 Norte 15 Norte 0 1015.1 0.8 88
2017-10-30 23:00:00 17 8 Norte 17 Norte 0 1015 1.2 88
2017-10-30 22:00:00 16.8 3 Noroeste 11 Norte 0 1014.8 1.4 90
2017-10-30 21:00:00 17 4 Norte 9 Nordeste 0 1014.3 1.6 85
2017-10-30 20:00:00 18.2 3 Norte 8 Norte 0 1013.8 1.7 80
2017-10-30 19:00:00 18.8 0 Calma 8 Este 0 1013.4 1.4 80
2017-10-30 18:00:00 19.7 5 Este 13 Sudeste 0 1012.7 0.6 75
2017-10-30 17:00:00 21.2 11 Este 18 Este 0 1012.1 -0.3 68
2017-10-30 16:00:00 21.9 12 Este 21 Este 0 1012 -0.8 65
2017-10-30 15:00:00 22.3 13 Este 22 Este 0 1012.1 -1.3 65
2017-10-30 14:00:00 22.4 13 Este 24 Este 0 1012.4 -1.2 60
2017-10-30 13:00:00 22.2 14 Este 24 Este 0 1012.8 -0.9 61
2017-10-30 12:00:00 21.7 12 Este 21 Este 0 1013.4 -0.1 63
2017-10-30 11:00:00 21.2 9 Este 15 Este 0 1013.6 0.6 62
2017-10-30 10:00:00 20.1 7 Este 11 Este 0 1013.7 1 71
2017-10-30 09:00:00 18.6 0 Calma 5 Oeste 0 1013.5 1 75
2017-10-30 08:00:00 14.1 5 Oeste 8 Oeste 0 1013 0.6 84
2017-10-30 07:00:00 13.3 0 Calma 4 Oeste 0 1012.7 0.2 86
2017-10-30 06:00:00 14 0 Calma 9 Noroeste 0 1012.5 -0.3 84
2017-10-30 05:00:00 14.1 9 Oeste 13 Oeste 0 1012.4 -0.7 84
2017-10-30 04:00:00 13.6 10 Oeste 13 Sudoeste 0 1012.5 -1 86
2017-10-30 03:00:00 13.5 13 Oeste 17 Sudoeste 0 1012.8 -1.1 87
2017-10-30 02:00:00 14.8 11 Oeste 13 Oeste 0 1013.1 -1.3 82
2017-10-30 01:00:00 15.1 11 Oeste 15 Oeste 0 1013.5 -1.3 82
2017-10-30 00:00:00 15.3 10 Noroeste -- -- 0 1013.9 -1.1 84
2017-10-29 23:00:00 16.2 6 Noroeste 9 Noroeste 0 1014.4 -0.7 82
2017-10-29 22:00:00 17.1 4 Noroeste 8 Noroeste 0 1014.8 -0.2 78
2017-10-29 21:00:00 17.1 0 Calma 5 Noroeste 0 1015 0.3 78
2017-10-29 20:00:00 19.2 4 Oeste 8 Oeste 0 1015.1 0.5 70
2017-10-29 19:00:00 19.1 7 Oeste 13 Sudoeste 0 1015 0 73
2017-10-29 18:00:00 20.7 9 Sur 21 Sur 0 1014.7 -0.8 67
2017-10-29 17:00:00 22.2 14 Sur 24 Sur 0 1014.6 -1.4 56
2017-10-29 16:00:00 23.2 15 Sur 24 Sur 0 1015 -2 53
2017-10-29 15:00:00 24 13 Sur 22 Sur 0 1015.5 -2.6 52
2017-10-29 14:00:00 23.9 11 Sudoeste 18 Sur 0 1016 -2.6 55
2017-10-29 13:00:00 23.2 11 Sur 18 Sur 0 1017 -1.9 57
2017-10-29 12:00:00 23.1 10 Oeste 17 Sudoeste 0 1018.1 -0.6 60
2017-10-29 11:00:00 21.8 8 Sudoeste 13 Sudoeste 0 1018.6 0.3 66
2017-10-29 10:00:00 21 6 Noroeste 13 Noroeste 0 1018.9 1 70
2017-10-29 09:00:00 18.6 10 Oeste 15 Oeste 0 1018.7 0.7 80
2017-10-29 08:00:00 17.6 9 Oeste 13 Oeste 0 1018.3 0.3 85
2017-10-29 07:00:00 -- 8 Oeste 13 Oeste 0 1017.9 -0.4 --
2017-10-29 06:00:00 16.6 10 Oeste 11 Oeste 0 1018 -0.6 89
2017-10-29 05:00:00 16.6 7 Oeste 9 Oeste 0 1018 -0.9 93
2017-10-29 04:00:00 17.1 5 Oeste 11 Sudoeste 0 1018.3 -0.9 92
2017-10-29 03:00:00 17 6 Oeste 11 Sudoeste 0 1018.6 -0.9 93
2017-10-29 02:00:00 17.3 2 Sudeste 11 Oeste 0 1018.9 -1 90
2017-10-29 01:00:00 18.2 4 Oeste 9 Oeste 0 1019.5 -0.9 93
2017-10-29 00:00:00 19.8 2 Norte 11 Norte 0 1019.9 -0.4 85
2017-10-28 23:00:00 19.6 4 Oeste 18 Norte 0.2 1020.1 0.1 84
2017-10-28 22:00:00 20 9 Norte 15 Este 0.1 1020.4 0.8 85
2017-10-28 21:00:00 20.2 10 Nordeste 18 Nordeste 1.2 1020.3 0.9 85
2017-10-28 20:00:00 20.6 11 Nordeste 21 Nordeste 0 1020 0.7 79
2017-10-28 19:00:00 21.1 13 Nordeste 26 Este 0 1019.6 0.1 77
2017-10-28 18:00:00 21.7 19 Este 30 Este 0 1019.4 -0.4 74
2017-10-28 17:00:00 22.4 20 Este 28 Este 0 1019.3 -1.1 72
2017-10-28 16:00:00 23.1 17 Este 37 Este 0 1019.5 -1.4 68
2017-10-28 15:00:00 23.8 23 Este 33 Este 0 1019.8 -1.4 64
2017-10-28 14:00:00 23.9 20 Este 30 Este 0 1020.4 -1.1 63
2017-10-28 13:00:00 24 18 Este 30 Este 0 1020.9 -0.5 61
2017-10-28 12:00:00 23.9 15 Nordeste 24 Nordeste 0 1021.2 0.5 58
2017-10-28 11:00:00 23.3 13 Nordeste 21 Nordeste 0 1021.5 1.3 54
2017-10-28 10:00:00 19.4 7 Norte 15 Norte 0 1021.4 1.4 68
2017-10-28 09:00:00 15.3 7 Norte 13 Norte 0 1020.7 1 85
2017-10-28 08:00:00 15.3 6 Norte 15 Nordeste 0 1020.2 0.8 87
2017-10-28 07:00:00 15.5 6 Norte 13 Nordeste 0 1020 0.5 85
2017-10-28 06:00:00 16.1 -- -- -- -- 0 1019.7 0.1 90
2017-10-28 05:00:00 17.1 8 Noroeste 15 Norte 0 1019.4 -0.3 91
2017-10-28 04:00:00 18.5 10 Norte 17 Nordeste 0 1019.5 0.4 87
2017-10-28 03:00:00 18.6 10 Norte 18 Norte 0 1019.6 0.5 80
2017-10-28 02:00:00 18.3 13 Norte 18 Norte 0 1019.7 0.5 70
2017-10-28 01:00:00 16.9 5 Norte 9 Norte 0 1019.1 -0.2 78
2017-10-28 00:00:00 16.9 3 Noroeste 9 Norte 0 1019.1 -0.3 72
2017-10-27 23:00:00 17.2 5 Noroeste 8 Noroeste 0 1019.2 -0.2 84
2017-10-27 22:00:00 17.2 0 Calma 5 Noroeste 0 1019.3 0.2 81
2017-10-27 21:00:00 19.7 0 Calma 5 Noroeste 0 1019.4 0.3 78
2017-10-27 20:00:00 20.4 0 Calma 8 Sudoeste 0 1019.4 0.3 75
2017-10-27 19:00:00 22.3 5 Sudoeste 15 Sur 0 1019.1 -0.6 64
2017-10-27 18:00:00 24.7 9 Sur 18 Sur 0 1019.1 -1.4 51
2017-10-27 17:00:00 27.8 10 Sur 15 Sur 0 1019.1 -2.4 31
2017-10-27 16:00:00 28.5 8 Sur 15 Sur 0 1019.7 -2.7 25
2017-10-27 15:00:00 28.4 6 Sur 13 Sur 0 1020.5 -2.4 27
2017-10-27 14:00:00 27.5 2 Sur 11 Oeste 0 1021.5 -1.7 28
2017-10-27 13:00:00 25.5 4 Sur 13 Sur 0 1022.4 -0.6 34
2017-10-27 12:00:00 23.6 2 Sudoeste 9 Sur 0 1022.9 0.3 39
2017-10-27 11:00:00 22.2 4 Sudoeste 8 Oeste 0 1023.2 0.6 44
2017-10-27 10:00:00 18.7 0 Calma 8 Oeste 0 1023 0.5 54
2017-10-27 09:00:00 13.9 5 Oeste 11 Oeste 0 1022.6 0 71
2017-10-27 08:00:00 13.2 5 Oeste 9 Oeste 0 1022.6 0 73
2017-10-27 07:00:00 13.6 9 Oeste 13 Oeste 0 1022.5 -0.7 67
2017-10-27 06:00:00 12.5 9 Oeste 11 Oeste 0 1022.6 -0.7 78
2017-10-27 05:00:00 12.6 7 Oeste 13 Oeste 0 1022.6 -1 75
2017-10-27 04:00:00 13.2 7 Oeste 9 Sudoeste 0 1023.2 -0.7 71
2017-10-27 03:00:00 14.8 5 Noroeste 13 Oeste 0 1023.3 -0.9 67
2017-10-27 02:00:00 14.7 7 Oeste 9 Oeste 0 1023.6 -0.7 73
2017-10-27 01:00:00 16 8 Noroeste 9 Noroeste 0 1023.9 -0.1 74
2017-10-27 00:00:00 17.4 5 Oeste 9 Oeste 0 1024.2 0.5 78
2017-10-26 23:00:00 16.6 8 Oeste 9 Oeste 0 1024.3 0.9 81
2017-10-26 22:00:00 17.2 0 Calma 11 Norte 0 1024 1.1 88
2017-10-26 21:00:00 19.5 5 Norte 11 Nordeste 0 1023.7 1.2 85
2017-10-26 20:00:00 20.1 3 Nordeste 9 Norte 0 1023.4 1.1 83
2017-10-26 19:00:00 21.6 6 Este 13 Este 0 1022.9 0.7 65
2017-10-26 18:00:00 24.6 11 Este 17 Este 0 1022.5 0.2 47
2017-10-26 17:00:00 26.1 12 Este 21 Este 0 1022.3 -0.7 37
2017-10-26 16:00:00 26.8 10 Sudeste 22 Este 0 1022.2 -1.3 31
2017-10-26 15:00:00 26.5 5 Sur 15 Sudeste 0 1022.3 -1.3 35
2017-10-26 14:00:00 26.1 6 Sur 17 Sur 0 1023 -0.7 37
2017-10-26 13:00:00 25.2 9 Sur 13 Sur 0 1023.5 0.2 39
2017-10-26 12:00:00 24.5 5 Sur 11 Sur 0 1023.6 0.6 38
2017-10-26 11:00:00 22.4 0 Calma 5 Sudoeste 0 1023.7 1.1 47
2017-10-26 10:00:00 19.2 0 Calma 5 Sur 0 1023.3 0.9 57
2017-10-26 09:00:00 15.2 0 Calma 8 Oeste 0 1023 1 71
2017-10-26 08:00:00 13.3 0 Calma 9 Oeste 0 1022.6 0.6 79
2017-10-26 07:00:00 14.5 0 Calma 4 Oeste 0 1022.4 0.1 75
2017-10-26 06:00:00 14.6 4 Oeste 13 Oeste 0 1022 -0.5 78
2017-10-26 05:00:00 14.8 10 Oeste -- -- 0 1022 -0.4 79
2017-10-26 04:00:00 14.7 8 Oeste -- -- 0 1022.3 -0.4 83
2017-10-26 03:00:00 15.3 7 Oeste 11 Noroeste 0 1022.5 -0.2 83
2017-10-26 02:00:00 15.6 8 Oeste 11 Noroeste 0 1022.4 0.1 86
2017-10-26 01:00:00 16.2 9 Noroeste 9 Noroeste 0 1022.7 0.7 85
2017-10-26 00:00:00 16.2 6 Oeste 8 Oeste 0 1022.7 1 85